Hahnstown, Pennsylvania
Current Conditions -  °F | °C
As of 12:53 PM on Saturday 22 Nov 2014 (Local Time) from KLNS Reporting Station
Overcast Overcast  
Wind Chill: 34°   Ceiling: 8500
Heat Index: 41°   Visibility: 10mi
Dew Point: 13°   Wind: 12mph
Humidity: 32%   Direction: 230°SW
Pressure: 30.34"   Gusts: NA
Location:  40.1811°N, 76.176°W
Report Text: KLNS 221753Z 23010KT 10SM OVC085 05/M11 A3034 RMK AO2 SLP277 T00501106 10056 21089 58041
Loading
Personal Weather Stations






























Interactive Weather Map New forecast layout! Learn more

10-Day Weather Forecast

Advertisements
Track Severe Weather on mobile